Pensacola Beach, Florida
Current Conditions -  °F | °C
As of 12:53 PM on Friday 31 Oct 2014 (Local Time) from KPNS Reporting Station
Clear Clear  
Wind Chill: 73°   Ceiling: Unl
Heat Index: 73°   Visibility: 10mi
Dew Point: 43°   Wind: 12mph
Humidity: 34%   Direction: 290°WNW
Pressure: 29.96"   Gusts: 17mph
Location:  30.3906°N, 87.0518°W
Report Text: KPNS 311753Z 29010G15KT 10SM CLR 23/06 A2996 RMK AO2 SLP146 T02280061 10228 20083 58018
Loading
Personal Weather Stations






























Interactive Weather Map
Tropical Storm Tracking
New forecast layout! Learn more

10-Day Weather Forecast

Advertisements
Track Severe Weather on mobile